weather.gov     
National Weather Service

Terminal Aerodrome Forecast
NWS Homepage
This page is being discontinued on March 12, 2014.
The same data is available at this site. Please update your bookmarks.
Thank you, and we apologize for the inconvenience.
Please send an email to SR-SRH.Webmaster@noaa.gov with any concerns.


Current Version
Previous Version:    01  02  03  04  05  06  07  08  09  10  11  12  13  14  15  16  17  18  19  20  21  22  23  24  25  26  27  28  29  30  
   31  32  33  34  35  36  37  38  39  40  41  
[Printable]
280
FTUS46 KPQR 232338
TAFAST
TAF
KAST 232338Z 2400/2424 19013G22KT 4SM -RADZ BR SCT008 BKN011 OVC025
     FM240600 19019G38KT 2SM RADZ BR SCT008 BKN012 OVC025
     FM241200 23012KT 5SM -RADZ BR BKN015 OVC025
     FM241500 23011KT P6SM -SHRA SCT015 BKN025 OVC045
     FM241800 22012KT P6SM -SHRA SCT025 BKN035 BKN050=




280
FTUS46 KPQR 232338
TAFAST
TAF
KAST 232338Z 2400/2424 19013G22KT 4SM -RADZ BR SCT008 BKN011 OVC025
     FM240600 19019G38KT 2SM RADZ BR SCT008 BKN012 OVC025
     FM241200 23012KT 5SM -RADZ BR BKN015 OVC025
     FM241500 23011KT P6SM -SHRA SCT015 BKN025 OVC045
     FM241800 22012KT P6SM -SHRA SCT025 BKN035 BKN050=


U.S. Dept. of Commerce
NOAA National Weather Service
1325 East West Highway
Silver Spring, MD 20910
E-mail: w-nws.webmaster@noaa.gov
Page last modified: May 16, 2007
NATIONAL WEATHER SERVICE: for Safety, for Work, for Fun - FOR LIFE